Time;durP1;ratioP1;P1;durP2;ratioP2;P2;SDS_P1;SDS_P2;PMS_P1;PMS_P2;Temp;Humidity;BMP_temperature;BMP_pressure;BME280_temperature;BME280_humidity;BME280_pressure;Samples;Min_cycle;Max_cycle;Signal;HPM_P1;HPM_P2
2022/01/26 00:07:29;;;;;;;;;;;20.80;36.20;;;;;;6306319;28;20023;-41
2022/01/26 00:10:30;;;;;;;;;;;20.40;36.30;;;;;;6306633;28;20014;-40
2022/01/26 00:13:32;;;;;;;;;;;20.50;36.30;;;;;;6305362;28;20058;-41
2022/01/26 00:16:38;;;;;;;;;;;20.70;36.40;;;;;;6305139;28;19927;-39
2022/01/26 00:19:49;;;;;;;;;;;20.30;36.20;;;;;;6306262;28;20098;-40
2022/01/26 00:23:02;;;;;;;;;;;20.90;36.70;;;;;;6306381;28;19963;-40
2022/01/26 00:26:10;;;;;;;;;;;20.10;36.00;;;;;;6290597;28;20786;-39
2022/01/26 00:29:14;;;;;;;;;;;20.60;36.30;;;;;;6305748;28;20041;-41
2022/01/26 00:38:47;;;;;;;;;;;20.30;36.20;;;;;;6306064;27;20732;-41
2022/01/26 00:41:49;;;;;;;;;;;20.20;36.20;;;;;;6308542;28;20643;-39
2022/01/26 00:44:50;;;;;;;;;;;20.20;36.40;;;;;;6311589;28;19931;-40
2022/01/26 00:47:52;;;;;;;;;;;20.30;36.50;;;;;;6315921;28;20042;-40
2022/01/26 00:50:54;;;;;;;;;;;20.70;36.60;;;;;;6306336;28;19928;-39
2022/01/26 00:54:02;;;;;;;;;;;20.20;36.40;;;;;;6316568;28;20062;-41
2022/01/26 00:57:04;;;;;;;;;;;20.40;36.40;;;;;;6309281;28;20000;-41
2022/01/26 01:00:07;;;;;;;;;;;20.50;36.00;;;;;;6317140;28;20011;-39
2022/01/26 01:03:09;;;;;;;;;;;20.20;36.30;;;;;;6297665;28;20019;-39
2022/01/26 01:06:14;;;;;;;;;;;20.10;36.40;;;;;;6315154;28;20061;-39
2022/01/26 01:09:17;;;;;;;;;;;20.50;36.50;;;;;;6301911;28;19931;-43
2022/01/26 01:12:18;;;;;;;;;;;19.90;36.20;;;;;;6319143;28;20846;-39
2022/01/26 01:15:21;;;;;;;;;;;20.20;36.40;;;;;;6319334;28;20046;-40
2022/01/26 01:18:29;;;;;;;;;;;20.30;36.70;;;;;;6309072;28;19935;-40
2022/01/26 01:28:18;;;;;;;;;;;20.80;36.60;;;;;;6312513;28;19931;-41
2022/01/26 01:31:30;;;;;;;;;;;20.70;36.50;;;;;;6313040;28;20675;-40
2022/01/26 01:34:36;;;;;;;;;;;20.30;36.40;;;;;;6313039;28;19929;-40
2022/01/26 01:37:38;;;;;;;;;;;20.30;36.30;;;;;;6311547;28;19958;-43
2022/01/26 01:40:41;;;;;;;;;;;20.40;36.50;;;;;;6316343;28;20026;-42
2022/01/26 01:43:43;;;;;;;;;;;20.00;36.30;;;;;;6313983;28;19928;-39
2022/01/26 01:46:45;;;;;;;;;;;20.60;36.60;;;;;;6315638;28;19931;-40
2022/01/26 01:49:46;;;;;;;;;;;20.40;36.50;;;;;;6314824;27;20018;-39
2022/01/26 01:52:47;;;;;;;;;;;20.10;36.40;;;;;;6289146;28;20795;-40
2022/01/26 01:55:50;;;;;;;;;;;20.20;36.50;;;;;;6315936;28;20004;-39
2022/01/26 01:58:53;;;;;;;;;;;20.00;36.40;;;;;;6315255;28;20042;-41
2022/01/26 02:01:55;;;;;;;;;;;20.60;36.30;;;;;;6296021;28;19931;-39
2022/01/26 02:04:58;;;;;;;;;;;20.00;36.30;;;;;;6311105;28;19967;-39
2022/01/26 02:08:00;;;;;;;;;;;20.00;36.40;;;;;;6312642;28;19975;-40
2022/01/26 02:11:03;;;;;;;;;;;19.90;36.30;;;;;;6315986;28;19927;-42
2022/01/26 02:14:09;;;;;;;;;;;20.00;36.30;;;;;;6308044;28;20046;-41
2022/01/26 02:17:21;;;;;;;;;;;20.50;36.70;;;;;;6307662;28;19958;-40
2022/01/26 02:20:42;;;;;;;;;;;20.10;36.30;;;;;;6307727;28;19945;-39
2022/01/26 02:50:05;;;;;;;;;;;19.90;36.30;;;;;;6312227;28;20466;-39
2022/01/26 02:53:27;;;;;;;;;;;20.50;36.20;;;;;;6311575;28;20474;-39
2022/01/26 02:56:39;;;;;;;;;;;20.00;36.30;;;;;;6294843;28;20043;-41
2022/01/26 03:03:00;;;;;;;;;;;20.20;36.50;;;;;;6296849;28;19928;-39
2022/01/26 03:06:06;;;;;;;;;;;20.30;36.40;;;;;;6307307;28;20315;-38
2022/01/26 03:09:12;;;;;;;;;;;20.10;36.50;;;;;;6309445;28;19935;-39
2022/01/26 03:12:22;;;;;;;;;;;19.90;36.40;;;;;;6308267;28;19931;-39
2022/01/26 03:15:28;;;;;;;;;;;20.00;36.50;;;;;;6304895;28;19959;-39
2022/01/26 03:21:56;;;;;;;;;;;20.00;36.40;;;;;;6308919;28;20066;-39
2022/01/26 03:28:21;;;;;;;;;;;20.00;36.50;;;;;;6307941;28;19928;-40
2022/01/26 03:34:39;;;;;;;;;;;20.50;36.70;;;;;;6296961;28;20700;-39
2022/01/26 03:37:49;;;;;;;;;;;20.30;36.60;;;;;;6313421;28;20014;-40
2022/01/26 03:41:07;;;;;;;;;;;19.90;36.50;;;;;;6303403;28;20696;-40
2022/01/26 03:44:09;;;;;;;;;;;19.90;36.50;;;;;;6287981;28;19972;-41
2022/01/26 03:47:10;;;;;;;;;;;20.30;36.70;;;;;;6308176;28;19964;-41
2022/01/26 03:50:12;;;;;;;;;;;20.00;36.60;;;;;;6301710;28;20325;-39
2022/01/26 03:53:13;;;;;;;;;;;20.00;36.80;;;;;;6283300;28;20038;-42
2022/01/26 03:56:15;;;;;;;;;;;19.70;36.50;;;;;;6303576;28;20379;-40
2022/01/26 03:59:17;;;;;;;;;;;19.80;36.50;;;;;;6305617;28;19931;-39
2022/01/26 04:02:18;;;;;;;;;;;20.00;36.60;;;;;;6308736;28;19931;-39
2022/01/26 04:05:20;;;;;;;;;;;19.90;36.10;;;;;;6308164;28;20019;-40
2022/01/26 04:08:27;;;;;;;;;;;20.50;37.70;;;;;;6308707;28;20439;-39
2022/01/26 04:11:34;;;;;;;;;;;20.30;36.80;;;;;;6312436;28;19927;-40
2022/01/26 04:14:36;;;;;;;;;;;19.80;36.60;;;;;;6313354;28;19959;-39
2022/01/26 04:17:38;;;;;;;;;;;19.80;36.60;;;;;;6317542;28;20025;-40
2022/01/26 04:20:43;;;;;;;;;;;19.70;37.30;;;;;;6317759;28;19932;-40
2022/01/26 04:23:50;;;;;;;;;;;19.90;36.90;;;;;;6316232;28;20454;-42
2022/01/26 04:26:57;;;;;;;;;;;19.80;36.60;;;;;;6311154;27;20014;-40
2022/01/26 04:29:58;;;;;;;;;;;19.90;36.90;;;;;;6318045;28;19928;-40
2022/01/26 04:33:03;;;;;;;;;;;19.70;36.90;;;;;;6318142;28;20925;-40
2022/01/26 04:36:09;;;;;;;;;;;19.70;36.80;;;;;;6320998;28;19932;-39
2022/01/26 04:39:15;;;;;;;;;;;20.00;36.90;;;;;;6315629;28;19932;-39
2022/01/26 04:42:24;;;;;;;;;;;19.80;36.60;;;;;;6301073;28;20065;-40
2022/01/26 04:45:25;;;;;;;;;;;19.80;36.70;;;;;;6313397;28;19990;-40
2022/01/26 04:48:27;;;;;;;;;;;20.00;36.90;;;;;;6310217;28;20063;-40
2022/01/26 04:51:28;;;;;;;;;;;19.80;36.80;;;;;;6309510;28;20777;-38
2022/01/26 04:54:29;;;;;;;;;;;19.80;36.80;;;;;;6318163;28;20450;-40
2022/01/26 04:57:31;;;;;;;;;;;20.20;36.90;;;;;;6310535;28;20142;-42
2022/01/26 05:00:33;;;;;;;;;;;19.80;36.80;;;;;;6305947;28;19928;-39
2022/01/26 05:03:34;;;;;;;;;;;19.60;36.70;;;;;;6309288;28;19958;-40
2022/01/26 05:06:36;;;;;;;;;;;19.70;36.90;;;;;;6309278;28;20498;-39
2022/01/26 05:09:38;;;;;;;;;;;20.40;36.70;;;;;;6312543;28;20059;-39
2022/01/26 05:12:41;;;;;;;;;;;19.70;36.80;;;;;;6315336;28;20725;-38
2022/01/26 05:15:43;;;;;;;;;;;19.50;36.60;;;;;;6305995;28;19928;-40
2022/01/26 05:18:44;;;;;;;;;;;20.10;37.00;;;;;;6306140;28;20267;-40
2022/01/26 05:21:45;;;;;;;;;;;19.60;36.80;;;;;;6308287;28;19938;-38
2022/01/26 05:24:48;;;;;;;;;;;20.00;36.90;;;;;;6307562;28;20060;-39
2022/01/26 05:27:50;;;;;;;;;;;19.70;36.80;;;;;;6306493;28;20193;-41
2022/01/26 05:30:51;;;;;;;;;;;20.10;37.00;;;;;;6316380;28;19971;-40
2022/01/26 05:33:54;;;;;;;;;;;19.60;36.80;;;;;;6314254;28;20048;-40
2022/01/26 05:36:55;;;;;;;;;;;19.60;36.80;;;;;;6317920;28;20038;-40
2022/01/26 05:39:57;;;;;;;;;;;20.00;37.00;;;;;;6319119;28;19924;-39
2022/01/26 05:42:59;;;;;;;;;;;19.60;36.90;;;;;;6316321;28;19958;-40
2022/01/26 05:46:05;;;;;;;;;;;19.70;36.90;;;;;;6309337;28;19932;-39
2022/01/26 05:49:06;;;;;;;;;;;20.00;36.90;;;;;;6299426;28;19938;-39
2022/01/26 05:52:08;;;;;;;;;;;19.70;36.90;;;;;;6314416;28;21009;-40
2022/01/26 05:55:09;;;;;;;;;;;20.00;37.00;;;;;;6314565;28;20879;-39
2022/01/26 05:58:11;;;;;;;;;;;20.00;37.00;;;;;;6308711;28;20001;-40
2022/01/26 06:01:14;;;;;;;;;;;19.70;36.80;;;;;;6308279;28;19928;-41
2022/01/26 06:04:15;;;;;;;;;;;20.00;37.20;;;;;;6309551;28;19931;-39
2022/01/26 06:07:17;;;;;;;;;;;19.80;36.90;;;;;;6288674;28;19975;-42
2022/01/26 06:10:18;;;;;;;;;;;20.10;36.60;;;;;;6308311;28;20034;-39
2022/01/26 06:13:20;;;;;;;;;;;20.10;37.10;;;;;;6307849;28;19935;-41
2022/01/26 06:16:21;;;;;;;;;;;19.60;36.80;;;;;;6310001;28;20034;-39
2022/01/26 06:19:23;;;;;;;;;;;19.60;36.80;;;;;;6305660;28;20793;-41
2022/01/26 06:22:24;;;;;;;;;;;19.60;36.90;;;;;;6310081;28;19971;-39
2022/01/26 06:25:27;;;;;;;;;;;19.50;36.80;;;;;;6314567;28;19970;-39
2022/01/26 06:28:29;;;;;;;;;;;19.60;36.70;;;;;;6311664;28;19928;-40
2022/01/26 06:31:30;;;;;;;;;;;20.00;37.00;;;;;;6311402;28;19928;-40
2022/01/26 06:34:35;;;;;;;;;;;19.60;36.80;;;;;;6312796;28;20136;-40
2022/01/26 06:37:37;;;;;;;;;;;19.50;36.70;;;;;;6312608;27;19962;-39
2022/01/26 06:40:38;;;;;;;;;;;19.60;36.50;;;;;;6295909;28;20658;-39
2022/01/26 06:43:47;;;;;;;;;;;20.10;37.10;;;;;;6309058;28;19932;-41
2022/01/26 06:46:58;;;;;;;;;;;19.60;36.60;;;;;;6298036;28;20010;-42
2022/01/26 06:50:00;;;;;;;;;;;19.60;36.60;;;;;;6305635;28;20026;-40
2022/01/26 06:53:01;;;;;;;;;;;19.50;36.60;;;;;;6297053;28;20895;-40
2022/01/26 06:56:03;;;;;;;;;;;19.80;37.40;;;;;;6297891;28;20040;-41
2022/01/26 06:59:04;;;;;;;;;;;19.80;36.60;;;;;;6295086;28;20063;-40
2022/01/26 07:02:06;;;;;;;;;;;19.80;36.50;;;;;;6297103;28;20850;-40
2022/01/26 07:05:08;;;;;;;;;;;19.60;36.50;;;;;;6299601;28;20033;-39
2022/01/26 07:08:10;;;;;;;;;;;20.10;36.40;;;;;;6272935;28;19934;-40
2022/01/26 07:11:12;;;;;;;;;;;20.40;36.50;;;;;;6284208;28;19932;-40
2022/01/26 07:14:23;;;;;;;;;;;20.00;36.60;;;;;;6292089;28;20009;-41
2022/01/26 07:21:22;;;;;;;;;;;20.90;36.30;;;;;;6284571;28;20353;-41
2022/01/26 07:24:14;;;;;;;;;;;20.40;36.10;;;;;;6270102;28;19938;-41
2022/01/26 07:27:15;;;;;;;;;;;20.30;36.00;;;;;;6288396;28;19938;-40
2022/01/26 07:30:18;;;;;;;;;;;20.50;36.10;;;;;;6284610;28;19971;-40
2022/01/26 07:33:19;;;;;;;;;;;20.00;35.70;;;;;;6282977;28;20012;-47
2022/01/26 07:36:20;;;;;;;;;;;20.10;35.90;;;;;;6277047;28;19932;-40
2022/01/26 07:39:31;;;;;;;;;;;20.30;35.70;;;;;;6217783;28;20811;-42
2022/01/26 07:42:33;;;;;;;;;;;21.00;36.00;;;;;;6261702;28;19932;-40
2022/01/26 07:45:38;;;;;;;;;;;20.40;35.60;;;;;;6254748;28;19932;-40
2022/01/26 07:48:40;;;;;;;;;;;20.70;34.90;;;;;;6254228;28;19938;-41
2022/01/26 07:51:41;;;;;;;;;;;20.20;35.40;;;;;;6235223;28;21676;-40
2022/01/26 07:54:44;;;;;;;;;;;20.40;35.60;;;;;;6255712;28;20042;-41
2022/01/26 07:57:48;;;;;;;;;;;20.70;35.60;;;;;;6223909;28;19932;-41
2022/01/26 08:00:50;;;;;;;;;;;20.80;35.50;;;;;;6208486;28;20056;-42
2022/01/26 08:03:51;;;;;;;;;;;20.80;35.60;;;;;;6187183;28;19932;-40
2022/01/26 08:06:53;;;;;;;;;;;20.40;35.30;;;;;;6207838;28;19938;-42
2022/01/26 08:09:54;;;;;;;;;;;20.70;36.10;;;;;;6196499;28;19936;-42
2022/01/26 08:13:01;;;;;;;;;;;20.70;35.90;;;;;;6188975;28;19954;-40
2022/01/26 08:16:03;;;;;;;;;;;20.90;35.70;;;;;;6173245;28;20836;-42
2022/01/26 08:19:05;;;;;;;;;;;21.20;35.90;;;;;;6183253;28;19981;-43
2022/01/26 08:22:06;;;;;;;;;;;20.60;35.70;;;;;;6194672;28;21533;-41
2022/01/26 08:25:08;;;;;;;;;;;20.60;35.60;;;;;;6188495;28;19964;-43
2022/01/26 08:28:17;;;;;;;;;;;20.90;35.50;;;;;;6170947;28;19947;-40
2022/01/26 08:31:19;;;;;;;;;;;20.70;35.30;;;;;;6160083;28;19932;-46
2022/01/26 08:34:21;;;;;;;;;;;21.10;35.60;;;;;;6168446;28;19963;-44
2022/01/26 08:37:22;;;;;;;;;;;21.40;35.70;;;;;;6155176;28;19946;-47
2022/01/26 08:40:24;;;;;;;;;;;21.10;35.40;;;;;;6173283;28;20017;-47
2022/01/26 08:43:25;;;;;;;;;;;21.50;35.50;;;;;;6150822;28;20060;-42
2022/01/26 08:46:27;;;;;;;;;;;21.40;35.30;;;;;;6170513;28;19932;-45
2022/01/26 08:49:30;;;;;;;;;;;21.00;35.00;;;;;;6181272;28;19987;-42
2022/01/26 08:52:31;;;;;;;;;;;21.20;35.00;;;;;;6168607;28;21510;-44
2022/01/26 08:55:35;;;;;;;;;;;21.60;35.20;;;;;;6180107;28;19994;-44
2022/01/26 08:58:36;;;;;;;;;;;21.50;35.00;;;;;;6170440;28;19932;-43
2022/01/26 09:01:38;;;;;;;;;;;21.10;34.80;;;;;;6170263;28;20005;-44
2022/01/26 09:04:40;;;;;;;;;;;21.20;34.70;;;;;;6173181;28;19931;-44
2022/01/26 09:07:44;;;;;;;;;;;21.20;34.80;;;;;;6164435;28;20018;-44
2022/01/26 09:10:45;;;;;;;;;;;21.60;34.80;;;;;;6175673;28;20017;-45
2022/01/26 09:13:51;;;;;;;;;;;21.70;34.90;;;;;;6187285;28;20382;-41
2022/01/26 09:16:54;;;;;;;;;;;21.30;34.50;;;;;;6207589;28;20058;-42
2022/01/26 09:19:59;;;;;;;;;;;21.40;34.50;;;;;;6188623;28;19939;-42
2022/01/26 09:23:00;;;;;;;;;;;21.60;34.60;;;;;;6193290;28;19931;-42
2022/01/26 09:26:06;;;;;;;;;;;21.80;34.80;;;;;;6200806;28;22427;-42
2022/01/26 09:29:08;;;;;;;;;;;21.60;34.70;;;;;;6191908;28;19940;-41
2022/01/26 09:32:11;;;;;;;;;;;21.70;34.50;;;;;;6188598;28;19932;-42
2022/01/26 09:35:13;;;;;;;;;;;21.30;34.30;;;;;;6197743;28;19944;-40
2022/01/26 09:38:15;;;;;;;;;;;21.30;34.30;;;;;;6179450;28;20010;-41
2022/01/26 09:41:19;;;;;;;;;;;21.40;34.50;;;;;;6197659;28;20078;-43
2022/01/26 09:44:21;;;;;;;;;;;21.50;34.50;;;;;;6198767;28;19939;-41
2022/01/26 09:47:24;;;;;;;;;;;21.50;34.50;;;;;;6198402;28;19943;-40
2022/01/26 09:50:26;;;;;;;;;;;22.20;34.70;;;;;;6186507;28;19932;-42
2022/01/26 09:53:29;;;;;;;;;;;21.80;34.70;;;;;;6194814;28;19963;-42
2022/01/26 09:56:30;;;;;;;;;;;21.50;34.50;;;;;;6199492;28;19932;-41
2022/01/26 09:59:32;;;;;;;;;;;21.90;34.60;;;;;;6176650;28;20057;-42
2022/01/26 10:02:35;;;;;;;;;;;21.50;34.30;;;;;;6176036;28;21085;-41
2022/01/26 10:05:41;;;;;;;;;;;22.10;34.60;;;;;;6181156;27;19931;-43
2022/01/26 10:08:59;;;;;;;;;;;22.00;34.20;;;;;;6214525;28;19937;-41
2022/01/26 10:18:35;;;;;;;;;;;21.50;34.30;;;;;;6169266;28;20041;-43
2022/01/26 10:21:45;;;;;;;;;;;21.60;34.40;;;;;;6193269;27;19938;-43
2022/01/26 10:24:47;;;;;;;;;;;21.80;34.30;;;;;;6212874;27;22266;-41
2022/01/26 10:27:49;;;;;;;;;;;21.90;34.60;;;;;;6213310;28;21147;-41
2022/01/26 10:30:50;;;;;;;;;;;21.80;34.30;;;;;;6183614;28;20050;-40
2022/01/26 10:33:54;;;;;;;;;;;21.70;34.30;;;;;;6188537;28;19932;-40
2022/01/26 10:36:57;;;;;;;;;;;22.10;34.50;;;;;;6193090;28;19945;-41
2022/01/26 10:40:09;;;;;;;;;;;21.60;34.20;;;;;;6192310;28;19932;-41
2022/01/26 10:43:14;;;;;;;;;;;21.80;34.10;;;;;;6201455;28;19932;-41
2022/01/26 10:46:25;;;;;;;;;;;22.20;34.40;;;;;;6168023;28;19932;-41
2022/01/26 10:49:44;;;;;;;;;;;22.10;34.30;;;;;;6206786;28;19986;-42
2022/01/26 10:52:54;;;;;;;;;;;21.80;34.10;;;;;;6191937;28;19933;-43
2022/01/26 10:55:55;;;;;;;;;;;22.20;34.50;;;;;;6195200;28;21256;-40
2022/01/26 10:58:57;;;;;;;;;;;21.80;34.20;;;;;;6121536;28;20471;-42
2022/01/26 11:02:01;;;;;;;;;;;22.30;34.30;;;;;;6109161;28;19938;-42
2022/01/26 11:05:03;;;;;;;;;;;21.50;32.80;;;;;;6139045;28;19932;-43
2022/01/26 11:08:08;;;;;;;;;;;22.10;34.90;;;;;;6172633;28;19939;-42
2022/01/26 11:11:17;;;;;;;;;;;21.80;34.10;;;;;;6141081;28;19938;-43
2022/01/26 11:14:21;;;;;;;;;;;22.20;34.30;;;;;;6172985;28;19931;-40
2022/01/26 11:17:28;;;;;;;;;;;21.90;34.30;;;;;;6174262;28;19953;-49
2022/01/26 11:20:31;;;;;;;;;;;21.40;33.70;;;;;;6159469;28;20046;-44
2022/01/26 11:23:34;;;;;;;;;;;22.20;34.30;;;;;;6193548;28;19950;-48
2022/01/26 11:26:38;;;;;;;;;;;22.20;34.20;;;;;;6196926;28;19936;-45
2022/01/26 11:29:43;;;;;;;;;;;22.30;34.30;;;;;;6182836;28;20061;-46
2022/01/26 11:32:53;;;;;;;;;;;22.00;34.00;;;;;;6189591;28;20860;-46
2022/01/26 11:35:56;;;;;;;;;;;21.90;33.90;;;;;;6222592;28;19931;-50
2022/01/26 11:42:17;;;;;;;;;;;22.70;34.30;;;;;;6236368;28;19932;-48
2022/01/26 11:45:23;;;;;;;;;;;22.00;33.90;;;;;;6210752;28;19932;-45
2022/01/26 11:48:25;;;;;;;;;;;22.00;33.90;;;;;;6219684;28;19975;-52
2022/01/26 11:51:37;;;;;;;;;;;21.80;33.80;;;;;;6234074;28;19938;-47
2022/01/26 11:54:41;;;;;;;;;;;21.90;33.80;;;;;;6238482;28;19939;-47
2022/01/26 11:57:45;;;;;;;;;;;22.10;33.80;;;;;;6243864;28;19931;-48
2022/01/26 12:00:55;;;;;;;;;;;22.40;34.70;;;;;;6224810;28;20055;-48
2022/01/26 12:03:59;;;;;;;;;;;21.90;34.10;;;;;;6231779;28;20681;-51
2022/01/26 12:07:13;;;;;;;;;;;22.30;34.00;;;;;;6217715;28;19931;-44
2022/01/26 12:10:18;;;;;;;;;;;22.20;33.90;;;;;;6224609;28;19932;-49
2022/01/26 12:13:23;;;;;;;;;;;22.00;33.70;;;;;;6237888;28;19938;-47
2022/01/26 12:16:32;;;;;;;;;;;21.80;33.70;;;;;;6217545;28;21090;-50
2022/01/26 12:19:45;;;;;;;;;;;22.10;33.80;;;;;;6226737;28;21683;-44
2022/01/26 12:33:14;;;;;;;;;;;22.00;33.70;;;;;;6244872;28;20046;-51
2022/01/26 12:36:32;;;;;;;;;;;22.40;33.90;;;;;;6236899;28;20050;-48
2022/01/26 12:43:00;;;;;;;;;;;22.50;33.90;;;;;;6247187;28;20066;-44
2022/01/26 12:46:22;;;;;;;;;;;22.80;34.10;;;;;;6232348;28;19939;-44
2022/01/26 12:49:25;;;;;;;;;;;22.40;33.90;;;;;;6229161;28;21407;-41
2022/01/26 12:52:28;;;;;;;;;;;22.00;33.70;;;;;;6203721;28;20062;-46
2022/01/26 12:55:32;;;;;;;;;;;22.50;33.90;;;;;;6229326;28;19935;-47
2022/01/26 12:58:34;;;;;;;;;;;22.70;34.00;;;;;;6210064;28;19932;-43
2022/01/26 13:01:36;;;;;;;;;;;22.20;33.50;;;;;;6191872;28;19932;-42
2022/01/26 13:04:38;;;;;;;;;;;22.10;33.60;;;;;;6155485;28;19939;-47
2022/01/26 13:07:39;;;;;;;;;;;22.70;33.70;;;;;;6200479;28;20243;-44
2022/01/26 13:10:41;;;;;;;;;;;22.50;33.60;;;;;;6214597;28;19939;-42
2022/01/26 13:13:43;;;;;;;;;;;22.50;33.50;;;;;;6184918;28;19938;-43
2022/01/26 13:16:55;;;;;;;;;;;22.80;33.70;;;;;;6166611;28;19939;-42
2022/01/26 13:20:11;;;;;;;;;;;22.60;33.40;;;;;;6159973;28;19938;-42
2022/01/26 13:23:27;;;;;;;;;;;22.40;33.30;;;;;;6195684;28;22699;-42
2022/01/26 13:26:37;;;;;;;;;;;22.90;33.30;;;;;;6220018;28;20343;-43
2022/01/26 13:29:51;;;;;;;;;;;23.20;33.60;;;;;;6197840;28;19965;-42
2022/01/26 13:33:09;;;;;;;;;;;22.70;33.30;;;;;;6178279;28;19931;-43
2022/01/26 13:36:25;;;;;;;;;;;22.50;33.20;;;;;;6205195;28;20568;-42
2022/01/26 13:46:27;;;;;;;;;;;22.60;33.00;;;;;;6185199;28;20958;-41
2022/01/26 13:49:38;;;;;;;;;;;23.00;33.30;;;;;;6196521;28;19931;-40
2022/01/26 13:52:46;;;;;;;;;;;23.30;33.20;;;;;;6209974;28;22044;-42
2022/01/26 13:56:02;;;;;;;;;;;23.00;33.10;;;;;;6222157;28;19993;-43
2022/01/26 13:59:13;;;;;;;;;;;23.20;33.10;;;;;;6212224;28;20039;-41
2022/01/26 14:02:14;;;;;;;;;;;23.10;33.10;;;;;;6200873;28;21898;-43
2022/01/26 14:05:16;;;;;;;;;;;23.10;33.10;;;;;;6197747;28;19931;-43
2022/01/26 14:08:18;;;;;;;;;;;23.20;33.20;;;;;;6186222;28;22752;-42
2022/01/26 14:11:19;;;;;;;;;;;23.10;33.10;;;;;;6192161;28;21236;-45
2022/01/26 14:14:25;;;;;;;;;;;23.30;33.20;;;;;;6192874;28;20989;-43
2022/01/26 14:17:37;;;;;;;;;;;23.00;32.90;;;;;;6186316;28;21641;-44
2022/01/26 14:20:45;;;;;;;;;;;23.00;33.00;;;;;;6199778;28;20046;-42
2022/01/26 14:24:00;;;;;;;;;;;23.20;33.00;;;;;;6178521;28;19938;-42
2022/01/26 14:27:04;;;;;;;;;;;23.30;33.10;;;;;;6185060;28;19931;-42
2022/01/26 14:30:17;;;;;;;;;;;22.90;32.90;;;;;;6183701;28;19939;-42
2022/01/26 14:36:50;;;;;;;;;;;23.20;33.10;;;;;;6161658;28;20690;-39
2022/01/26 15:00:00;;;;;;;;;;;23.10;32.80;;;;;;6166891;28;20129;-44
2022/01/26 15:42:26;;;;;;;;;;;23.20;33.00;;;;;;6193073;28;20169;-40
2022/01/26 15:48:48;;;;;;;;;;;23.30;33.00;;;;;;6193260;28;19931;-42
2022/01/26 15:58:25;;;;;;;;;;;23.50;32.90;;;;;;6199813;28;19939;-39
2022/01/26 16:05:06;;;;;;;;;;;23.10;32.80;;;;;;6191263;28;21276;-43
2022/01/26 16:08:24;;;;;;;;;;;23.20;32.80;;;;;;6173091;28;20647;-42
2022/01/26 16:21:16;;;;;;;;;;;23.30;32.80;;;;;;6198651;28;20009;-44
2022/01/26 18:51:10;;;;;;;;;;;22.60;33.80;;;;;;6262661;28;19928;-42
2022/01/26 18:54:12;;;;;;;;;;;22.30;33.70;;;;;;6262621;28;20277;-42
2022/01/26 18:57:13;;;;;;;;;;;22.60;33.90;;;;;;6273194;28;19928;-41
2022/01/26 19:00:15;;;;;;;;;;;22.40;34.00;;;;;;6265057;28;22013;-43
2022/01/26 19:03:16;;;;;;;;;;;22.70;34.00;;;;;;6280416;28;20017;-42
2022/01/26 19:06:18;;;;;;;;;;;22.40;34.10;;;;;;6278236;28;19932;-42
2022/01/26 19:09:22;;;;;;;;;;;22.90;34.30;;;;;;6278698;28;20050;-43
2022/01/26 19:12:29;;;;;;;;;;;22.70;34.30;;;;;;6274562;28;19931;-42
2022/01/26 19:15:32;;;;;;;;;;;22.30;34.20;;;;;;6275855;28;20586;-43
2022/01/26 19:18:49;;;;;;;;;;;22.10;34.20;;;;;;6285091;28;20418;-41
2022/01/26 19:22:10;;;;;;;;;;;22.50;34.40;;;;;;6286083;28;19938;-42
2022/01/26 19:25:16;;;;;;;;;;;22.20;34.30;;;;;;6292054;28;19931;-41
2022/01/26 19:28:23;;;;;;;;;;;22.40;34.50;;;;;;6285092;28;19939;-42
2022/01/26 19:50:57;;;;;;;;;;;21.70;34.40;;;;;;6302161;28;19936;-44
2022/01/26 19:53:59;;;;;;;;;;;22.10;34.80;;;;;;6306310;28;19967;-43
2022/01/26 19:57:01;;;;;;;;;;;21.80;34.60;;;;;;6302604;28;19939;-44
2022/01/26 20:00:03;;;;;;;;;;;21.80;34.70;;;;;;6290636;28;20012;-44
2022/01/26 20:03:11;;;;;;;;;;;21.60;34.50;;;;;;6308369;28;20644;-43
2022/01/26 20:06:13;;;;;;;;;;;22.00;34.80;;;;;;6303008;28;19939;-45
2022/01/26 20:09:22;;;;;;;;;;;21.70;35.30;;;;;;6300147;28;19997;-43
2022/01/26 20:12:34;;;;;;;;;;;21.70;34.60;;;;;;6305758;28;19937;-45
2022/01/26 20:15:37;;;;;;;;;;;22.10;34.50;;;;;;6305304;28;19939;-44
2022/01/26 20:18:38;;;;;;;;;;;21.60;34.80;;;;;;6304405;28;19963;-43
2022/01/26 20:21:40;;;;;;;;;;;21.50;34.70;;;;;;6307615;28;19981;-48
2022/01/26 20:24:42;;;;;;;;;;;22.10;35.00;;;;;;6309701;28;20016;-43
2022/01/26 20:27:44;;;;;;;;;;;21.70;34.90;;;;;;6305529;28;19937;-45
2022/01/26 20:30:47;;;;;;;;;;;21.70;34.80;;;;;;6291246;28;19931;-44
2022/01/26 20:33:49;;;;;;;;;;;22.00;35.20;;;;;;6314592;28;20629;-42
2022/01/26 20:36:51;;;;;;;;;;;21.50;34.80;;;;;;6296393;28;19935;-42
2022/01/26 20:39:54;;;;;;;;;;;21.40;34.80;;;;;;6305340;28;19936;-42
2022/01/26 20:42:55;;;;;;;;;;;21.80;35.00;;;;;;6310579;28;20090;-46
2022/01/26 20:46:05;;;;;;;;;;;21.80;35.00;;;;;;6312179;28;20088;-45
2022/01/26 20:49:08;;;;;;;;;;;21.40;34.50;;;;;;6309940;28;19935;-44
2022/01/26 20:52:15;;;;;;;;;;;21.50;34.90;;;;;;6308105;28;19931;-44
2022/01/26 20:55:20;;;;;;;;;;;21.60;35.00;;;;;;6317753;28;19927;-42
2022/01/26 20:58:21;;;;;;;;;;;21.50;35.10;;;;;;6311882;28;20640;-41
2022/01/26 21:01:37;;;;;;;;;;;21.50;35.10;;;;;;6308248;28;19934;-43
2022/01/26 21:04:39;;;;;;;;;;;21.40;34.90;;;;;;6312957;28;20046;-43
2022/01/26 21:07:40;;;;;;;;;;;21.90;35.40;;;;;;6310185;28;19959;-43
2022/01/26 21:10:42;;;;;;;;;;;21.20;35.00;;;;;;6306875;28;19931;-43
2022/01/26 21:14:04;;;;;;;;;;;21.40;35.10;;;;;;6290077;28;20907;-42
2022/01/26 21:17:05;;;;;;;;;;;21.80;35.20;;;;;;6303309;28;19935;-44
2022/01/26 21:20:10;;;;;;;;;;;21.70;35.30;;;;;;6286427;28;19932;-44
2022/01/26 21:23:15;;;;;;;;;;;21.40;35.10;;;;;;6294577;28;19938;-48
2022/01/26 21:26:20;;;;;;;;;;;21.50;34.90;;;;;;6285070;28;19989;-44
2022/01/26 21:29:21;;;;;;;;;;;21.10;35.00;;;;;;6309202;28;19934;-44
2022/01/26 21:32:24;;;;;;;;;;;21.50;35.30;;;;;;6305005;28;19927;-44
2022/01/26 21:35:27;;;;;;;;;;;21.10;35.10;;;;;;6303813;28;20024;-43
2022/01/26 21:38:28;;;;;;;;;;;21.20;35.00;;;;;;6307541;28;19928;-45
2022/01/26 21:41:30;;;;;;;;;;;21.10;35.20;;;;;;6306698;28;20708;-43
2022/01/26 21:44:32;;;;;;;;;;;21.90;35.60;;;;;;6299922;28;19932;-44
2022/01/26 21:47:34;;;;;;;;;;;21.70;35.60;;;;;;6302198;28;19988;-43
2022/01/26 21:50:35;;;;;;;;;;;21.60;35.40;;;;;;6310108;28;19939;-43
2022/01/26 21:53:37;;;;;;;;;;;21.20;35.20;;;;;;6308744;28;20042;-43
2022/01/26 21:56:39;;;;;;;;;;;21.60;35.00;;;;;;6305307;28;19936;-43
2022/01/26 21:59:41;;;;;;;;;;;21.40;34.50;;;;;;6284629;28;19967;-45
2022/01/26 22:02:42;;;;;;;;;;;21.00;35.20;;;;;;6300052;28;20160;-44
2022/01/26 22:05:44;;;;;;;;;;;21.00;35.00;;;;;;6305081;28;20038;-42
2022/01/26 22:08:45;;;;;;;;;;;21.20;35.30;;;;;;6310618;27;20445;-45
2022/01/26 22:11:48;;;;;;;;;;;21.10;35.20;;;;;;6286958;28;20486;-43
2022/01/26 22:14:49;;;;;;;;;;;21.60;36.10;;;;;;6299698;28;20842;-42
2022/01/26 22:17:51;;;;;;;;;;;21.30;35.40;;;;;;6294931;28;19931;-45
2022/01/26 22:20:52;;;;;;;;;;;20.80;35.00;;;;;;6308554;28;19932;-43
2022/01/26 22:23:54;;;;;;;;;;;21.30;35.40;;;;;;6307321;28;19928;-43
2022/01/26 22:26:56;;;;;;;;;;;21.10;35.40;;;;;;6307286;28;20000;-44
2022/01/26 22:29:59;;;;;;;;;;;21.20;35.80;;;;;;6303353;28;19932;-43
2022/01/26 22:33:01;;;;;;;;;;;21.00;35.40;;;;;;6293935;28;19939;-45
2022/01/26 22:36:03;;;;;;;;;;;20.90;35.20;;;;;;6290714;28;20045;-42
2022/01/26 22:39:04;;;;;;;;;;;21.40;35.60;;;;;;6308028;28;20037;-44
2022/01/26 22:42:07;;;;;;;;;;;21.00;35.50;;;;;;6304711;28;20726;-44
2022/01/26 22:45:08;;;;;;;;;;;21.00;35.40;;;;;;6296693;28;19931;-44
2022/01/26 22:48:18;;;;;;;;;;;20.90;35.10;;;;;;6305864;28;19923;-43
2022/01/26 22:51:20;;;;;;;;;;;21.00;35.20;;;;;;6300071;28;20994;-46
2022/01/26 22:54:29;;;;;;;;;;;21.00;35.40;;;;;;6305578;28;19938;-46
2022/01/26 22:57:53;;;;;;;;;;;21.00;35.40;;;;;;6287259;28;21326;-43
2022/01/26 23:01:17;;;;;;;;;;;20.80;35.30;;;;;;6287184;28;19932;-42
2022/01/26 23:04:22;;;;;;;;;;;21.30;35.50;;;;;;6284223;28;19932;-45
2022/01/26 23:07:24;;;;;;;;;;;21.30;35.60;;;;;;6303486;28;20871;-42
2022/01/26 23:10:26;;;;;;;;;;;21.20;35.40;;;;;;6300478;28;19959;-41
2022/01/26 23:13:28;;;;;;;;;;;20.90;35.40;;;;;;6301227;28;19939;-45
2022/01/26 23:16:31;;;;;;;;;;;20.90;35.50;;;;;;6306071;28;19988;-44
2022/01/26 23:19:32;;;;;;;;;;;21.30;35.50;;;;;;6307851;28;19923;-42
2022/01/26 23:22:37;;;;;;;;;;;21.10;35.60;;;;;;6309746;28;19992;-43
2022/01/26 23:26:04;;;;;;;;;;;21.20;35.50;;;;;;6294687;28;20721;-44
2022/01/26 23:29:33;;;;;;;;;;;21.20;35.30;;;;;;6303217;28;19935;-44
2022/01/26 23:33:05;;;;;;;;;;;21.30;35.70;;;;;;6299569;28;19932;-44
2022/01/26 23:36:21;;;;;;;;;;;20.90;35.40;;;;;;6298581;28;19928;-44
